Terminal Aerodrome Forecast
Issued by NWS Charleston, SC

Home | Current Version | Previous Version | Text Only | Print | Product List | Glossary On
Versions: 1 2 3 4 5 6 7 8 9 10 11 12 13 14 15 16 17 18 19 20 21 22 23 24 25 26 27 28
000
FTUS42 KCHS 300527
TAFCHS
TAF
KCHS 300527Z 3006/3106 32006KT P6SM VCSH SCT006 BKN020
     FM301500 29009KT P6SM VCSH SCT010 BKN025
      TEMPO 3015/3019 5SM SHRA SCT009 OVC018
     FM310000 VRB03KT P6SM VCSH SCT015 BKN040=

USA.gov is the U.S. government's official web portal to all federal, state and local government web resources and services.